sensor_id;sensor_type;location;lat;lon;timestamp;temperature;humidity
29093;DHT22;16167;48.768;14.984;2023-01-01T00:01:56;7.20;3.30
29093;DHT22;16167;48.768;14.984;2023-01-01T00:04:25;7.20;4.50
29093;DHT22;16167;48.768;14.984;2023-01-01T00:06:53;7.10;3.50
29093;DHT22;16167;48.768;14.984;2023-01-01T00:09:23;7.20;6.10
29093;DHT22;16167;48.768;14.984;2023-01-01T00:12:08;7.10;4.70
29093;DHT22;16167;48.768;14.984;2023-01-01T00:14:36;7.10;5.10
29093;DHT22;16167;48.768;14.984;2023-01-01T00:17:08;7.10;5.30
29093;DHT22;16167;48.768;14.984;2023-01-01T00:19:36;7.10;3.90
29093;DHT22;16167;48.768;14.984;2023-01-01T00:22:05;7.10;5.60
29093;DHT22;16167;48.768;14.984;2023-01-01T00:24:54;7.10;7.50
29093;DHT22;16167;48.768;14.984;2023-01-01T00:27:22;7.00;8.00
29093;DHT22;16167;48.768;14.984;2023-01-01T00:29:50;7.00;8.70
29093;DHT22;16167;48.768;14.984;2023-01-01T00:32:18;7.10;5.50
29093;DHT22;16167;48.768;14.984;2023-01-01T00:34:48;7.10;2.80
29093;DHT22;16167;48.768;14.984;2023-01-01T00:37:17;7.10;5.70
29093;DHT22;16167;48.768;14.984;2023-01-01T00:39:45;7.10;4.20
29093;DHT22;16167;48.768;14.984;2023-01-01T00:42:14;7.10;1.40
29093;DHT22;16167;48.768;14.984;2023-01-01T00:44:42;7.10;1.50
29093;DHT22;16167;48.768;14.984;2023-01-01T00:47:10;7.00;3.80
29093;DHT22;16167;48.768;14.984;2023-01-01T00:49:38;7.00;1.20
29093;DHT22;16167;48.768;14.984;2023-01-01T00:52:06;7.00;2.90
29093;DHT22;16167;48.768;14.984;2023-01-01T00:54:34;7.10;1.00
29093;DHT22;16167;48.768;14.984;2023-01-01T00:57:02;7.20;1.00
29093;DHT22;16167;48.768;14.984;2023-01-01T00:59:32;7.20;1.00
29093;DHT22;16167;48.768;14.984;2023-01-01T01:02:00;7.20;1.00
29093;DHT22;16167;48.768;14.984;2023-01-01T01:04:28;7.30;1.00
29093;DHT22;16167;48.768;14.984;2023-01-01T01:06:56;7.30;1.00
29093;DHT22;16167;48.768;14.984;2023-01-01T01:09:24;7.40;1.00
29093;DHT22;16167;48.768;14.984;2023-01-01T01:11:52;7.30;1.00
29093;DHT22;16167;48.768;14.984;2023-01-01T01:14:42;7.30;1.00
29093;DHT22;16167;48.768;14.984;2023-01-01T01:17:10;7.20;1.00
29093;DHT22;16167;48.768;14.984;2023-01-01T01:19:38;7.20;1.00
29093;DHT22;16167;48.768;14.984;2023-01-01T01:22:06;7.20;1.00
29093;DHT22;16167;48.768;14.984;2023-01-01T01:24:34;7.30;1.00
29093;DHT22;16167;48.768;14.984;2023-01-01T01:27:02;7.30;1.00
29093;DHT22;16167;48.768;14.984;2023-01-01T01:29:30;7.30;1.00
29093;DHT22;16167;48.768;14.984;2023-01-01T01:31:59;7.30;1.00
29093;DHT22;16167;48.768;14.984;2023-01-01T01:34:27;7.30;1.00
29093;DHT22;16167;48.768;14.984;2023-01-01T01:36:55;7.40;1.00
29093;DHT22;16167;48.768;14.984;2023-01-01T01:39:23;7.40;1.00
29093;DHT22;16167;48.768;14.984;2023-01-01T01:41:51;7.30;1.00
29093;DHT22;16167;48.768;14.984;2023-01-01T01:44:55;7.30;1.00
29093;DHT22;16167;48.768;14.984;2023-01-01T01:47:30;7.20;1.00
29093;DHT22;16167;48.768;14.984;2023-01-01T01:50:04;7.20;1.00
29093;DHT22;16167;48.768;14.984;2023-01-01T01:52:34;7.10;1.00
29093;DHT22;16167;48.768;14.984;2023-01-01T01:55:05;7.10;1.00
29093;DHT22;16167;48.768;14.984;2023-01-01T01:57:35;7.10;1.00
29093;DHT22;16167;48.768;14.984;2023-01-01T02:00:04;7.00;2.80
29093;DHT22;16167;48.768;14.984;2023-01-01T02:02:44;7.00;1.00
29093;DHT22;16167;48.768;14.984;2023-01-01T02:05:13;7.00;1.50
29093;DHT22;16167;48.768;14.984;2023-01-01T02:07:41;7.00;2.00
29093;DHT22;16167;48.768;14.984;2023-01-01T02:10:09;7.00;3.20
29093;DHT22;16167;48.768;14.984;2023-01-01T02:12:38;7.00;3.70
29093;DHT22;16167;48.768;14.984;2023-01-01T02:15:07;7.00;4.30
29093;DHT22;16167;48.768;14.984;2023-01-01T02:17:42;7.00;7.00
29093;DHT22;16167;48.768;14.984;2023-01-01T02:20:28;7.00;7.20
29093;DHT22;16167;48.768;14.984;2023-01-01T02:23:27;6.90;7.20
29093;DHT22;16167;48.768;14.984;2023-01-01T02:26:16;6.90;9.90
29093;DHT22;16167;48.768;14.984;2023-01-01T02:28:54;6.90;11.40
29093;DHT22;16167;48.768;14.984;2023-01-01T02:31:29;6.90;9.10
29093;DHT22;16167;48.768;14.984;2023-01-01T02:34:00;6.80;8.90
29093;DHT22;16167;48.768;14.984;2023-01-01T02:36:31;6.80;8.90
29093;DHT22;16167;48.768;14.984;2023-01-01T02:39:02;6.80;7.80
29093;DHT22;16167;48.768;14.984;2023-01-01T02:41:35;6.70;6.70
29093;DHT22;16167;48.768;14.984;2023-01-01T02:44:07;6.70;7.80
29093;DHT22;16167;48.768;14.984;2023-01-01T02:46:35;6.70;7.90
29093;DHT22;16167;48.768;14.984;2023-01-01T02:49:04;6.70;8.40
29093;DHT22;16167;48.768;14.984;2023-01-01T02:51:44;6.80;9.80
29093;DHT22;16167;48.768;14.984;2023-01-01T02:54:21;6.80;9.90
29093;DHT22;16167;48.768;14.984;2023-01-01T02:56:54;6.80;8.20
29093;DHT22;16167;48.768;14.984;2023-01-01T02:59:32;6.80;8.80
29093;DHT22;16167;48.768;14.984;2023-01-01T03:02:24;6.80;8.40
29093;DHT22;16167;48.768;14.984;2023-01-01T03:05:04;6.80;9.10
29093;DHT22;16167;48.768;14.984;2023-01-01T03:07:40;6.80;10.60
29093;DHT22;16167;48.768;14.984;2023-01-01T03:10:15;6.80;7.30
29093;DHT22;16167;48.768;14.984;2023-01-01T03:12:51;6.90;8.40
29093;DHT22;16167;48.768;14.984;2023-01-01T03:15:27;6.90;7.00
29093;DHT22;16167;48.768;14.984;2023-01-01T03:18:00;6.90;5.50
29093;DHT22;16167;48.768;14.984;2023-01-01T03:20:31;7.00;5.30
29093;DHT22;16167;48.768;14.984;2023-01-01T03:23:02;7.00;3.40
29093;DHT22;16167;48.768;14.984;2023-01-01T03:25:35;7.00;5.30
29093;DHT22;16167;48.768;14.984;2023-01-01T03:28:09;7.10;2.50
29093;DHT22;16167;48.768;14.984;2023-01-01T03:30:40;7.10;1.10
29093;DHT22;16167;48.768;14.984;2023-01-01T03:33:13;7.20;1.00
29093;DHT22;16167;48.768;14.984;2023-01-01T03:35:47;7.20;1.90
29093;DHT22;16167;48.768;14.984;2023-01-01T03:38:20;7.20;1.00
29093;DHT22;16167;48.768;14.984;2023-01-01T03:40:52;7.20;1.00
29093;DHT22;16167;48.768;14.984;2023-01-01T03:43:25;7.30;1.00
29093;DHT22;16167;48.768;14.984;2023-01-01T03:45:59;7.30;1.00
29093;DHT22;16167;48.768;14.984;2023-01-01T03:48:29;7.30;1.00
29093;DHT22;16167;48.768;14.984;2023-01-01T03:51:28;7.30;1.00
29093;DHT22;16167;48.768;14.984;2023-01-01T03:54:01;7.30;1.00
29093;DHT22;16167;48.768;14.984;2023-01-01T03:56:36;7.30;1.00
29093;DHT22;16167;48.768;14.984;2023-01-01T03:59:10;7.40;1.00
29093;DHT22;16167;48.768;14.984;2023-01-01T04:01:45;7.40;1.00
29093;DHT22;16167;48.768;14.984;2023-01-01T04:04:15;7.40;1.00
29093;DHT22;16167;48.768;14.984;2023-01-01T04:06:44;7.50;1.00
29093;DHT22;16167;48.768;14.984;2023-01-01T04:09:17;7.50;1.00
29093;DHT22;16167;48.768;14.984;2023-01-01T04:11:47;7.50;1.00
29093;DHT22;16167;48.768;14.984;2023-01-01T04:14:31;7.50;1.00
29093;DHT22;16167;48.768;14.984;2023-01-01T04:17:02;7.50;1.00
29093;DHT22;16167;48.768;14.984;2023-01-01T04:19:31;7.50;1.00
29093;DHT22;16167;48.768;14.984;2023-01-01T04:22:00;7.50;1.00
29093;DHT22;16167;48.768;14.984;2023-01-01T04:24:28;7.50;1.00
29093;DHT22;16167;48.768;14.984;2023-01-01T04:26:56;7.50;1.00
29093;DHT22;16167;48.768;14.984;2023-01-01T04:29:24;7.50;1.00
29093;DHT22;16167;48.768;14.984;2023-01-01T04:31:52;7.50;1.00
29093;DHT22;16167;48.768;14.984;2023-01-01T04:34:22;7.50;1.00
29093;DHT22;16167;48.768;14.984;2023-01-01T04:36:50;7.50;1.00
29093;DHT22;16167;48.768;14.984;2023-01-01T04:39:18;7.50;1.00
29093;DHT22;16167;48.768;14.984;2023-01-01T04:41:46;7.50;1.00
29093;DHT22;16167;48.768;14.984;2023-01-01T04:44:15;7.50;1.00
29093;DHT22;16167;48.768;14.984;2023-01-01T04:46:43;7.50;1.00
29093;DHT22;16167;48.768;14.984;2023-01-01T04:49:11;7.50;1.00
29093;DHT22;16167;48.768;14.984;2023-01-01T04:51:40;7.50;1.00
29093;DHT22;16167;48.768;14.984;2023-01-01T04:54:08;7.50;1.00
29093;DHT22;16167;48.768;14.984;2023-01-01T04:56:36;7.40;1.00
29093;DHT22;16167;48.768;14.984;2023-01-01T04:59:04;7.40;1.00
29093;DHT22;16167;48.768;14.984;2023-01-01T05:01:32;7.40;1.00
29093;DHT22;16167;48.768;14.984;2023-01-01T05:04:01;7.30;1.00
29093;DHT22;16167;48.768;14.984;2023-01-01T05:06:29;7.30;1.00
29093;DHT22;16167;48.768;14.984;2023-01-01T05:08:58;7.20;1.00
29093;DHT22;16167;48.768;14.984;2023-01-01T05:11:28;7.20;1.00
29093;DHT22;16167;48.768;14.984;2023-01-01T05:13:58;7.10;1.00
29093;DHT22;16167;48.768;14.984;2023-01-01T05:16:28;7.10;1.00
29093;DHT22;16167;48.768;14.984;2023-01-01T05:18:56;7.10;1.00
29093;DHT22;16167;48.768;14.984;2023-01-01T05:21:26;7.10;1.00
29093;DHT22;16167;48.768;14.984;2023-01-01T05:23:54;7.00;1.00
29093;DHT22;16167;48.768;14.984;2023-01-01T05:26:25;7.00;1.00
29093;DHT22;16167;48.768;14.984;2023-01-01T05:28:55;7.00;1.00
29093;DHT22;16167;48.768;14.984;2023-01-01T05:31:24;7.00;1.00
29093;DHT22;16167;48.768;14.984;2023-01-01T05:33:53;7.00;1.00
29093;DHT22;16167;48.768;14.984;2023-01-01T05:36:23;7.00;1.00
29093;DHT22;16167;48.768;14.984;2023-01-01T05:38:51;6.90;1.00
29093;DHT22;16167;48.768;14.984;2023-01-01T05:41:21;6.80;1.00
29093;DHT22;16167;48.768;14.984;2023-01-01T05:43:51;6.70;1.00
29093;DHT22;16167;48.768;14.984;2023-01-01T05:46:21;6.70;1.00
29093;DHT22;16167;48.768;14.984;2023-01-01T05:48:49;6.60;1.20
29093;DHT22;16167;48.768;14.984;2023-01-01T05:51:19;6.60;3.60
29093;DHT22;16167;48.768;14.984;2023-01-01T05:53:47;6.50;2.80
29093;DHT22;16167;48.768;14.984;2023-01-01T05:56:16;6.40;3.50
29093;DHT22;16167;48.768;14.984;2023-01-01T05:58:45;6.40;5.50
29093;DHT22;16167;48.768;14.984;2023-01-01T06:01:17;6.40;9.10
29093;DHT22;16167;48.768;14.984;2023-01-01T06:03:46;6.40;8.70
29093;DHT22;16167;48.768;14.984;2023-01-01T06:06:16;6.40;9.60
29093;DHT22;16167;48.768;14.984;2023-01-01T06:08:48;6.40;8.20
29093;DHT22;16167;48.768;14.984;2023-01-01T06:11:17;6.40;8.10
29093;DHT22;16167;48.768;14.984;2023-01-01T06:13:45;6.40;7.00
29093;DHT22;16167;48.768;14.984;2023-01-01T06:16:15;6.30;8.50
29093;DHT22;16167;48.768;14.984;2023-01-01T06:18:43;6.30;10.40
29093;DHT22;16167;48.768;14.984;2023-01-01T06:21:13;6.20;9.30
29093;DHT22;16167;48.768;14.984;2023-01-01T06:23:42;6.20;14.50
29093;DHT22;16167;48.768;14.984;2023-01-01T06:26:12;6.20;13.30
29093;DHT22;16167;48.768;14.984;2023-01-01T06:28:41;6.20;11.90
29093;DHT22;16167;48.768;14.984;2023-01-01T06:31:11;6.10;13.50
29093;DHT22;16167;48.768;14.984;2023-01-01T06:33:42;6.10;13.70
29093;DHT22;16167;48.768;14.984;2023-01-01T06:36:11;6.10;19.30
29093;DHT22;16167;48.768;14.984;2023-01-01T06:38:43;6.10;14.60
29093;DHT22;16167;48.768;14.984;2023-01-01T06:41:13;6.10;15.00
29093;DHT22;16167;48.768;14.984;2023-01-01T06:43:41;6.00;13.70
29093;DHT22;16167;48.768;14.984;2023-01-01T06:46:13;6.00;15.30
29093;DHT22;16167;48.768;14.984;2023-01-01T06:48:45;6.00;19.70
29093;DHT22;16167;48.768;14.984;2023-01-01T06:51:15;6.00;16.30
29093;DHT22;16167;48.768;14.984;2023-01-01T06:53:43;5.90;17.70
29093;DHT22;16167;48.768;14.984;2023-01-01T06:56:12;5.90;19.70
29093;DHT22;16167;48.768;14.984;2023-01-01T06:58:40;5.90;19.40
29093;DHT22;16167;48.768;14.984;2023-01-01T07:01:10;5.90;23.40
29093;DHT22;16167;48.768;14.984;2023-01-01T07:03:40;5.90;20.40
29093;DHT22;16167;48.768;14.984;2023-01-01T07:06:09;5.90;22.50
29093;DHT22;16167;48.768;14.984;2023-01-01T07:08:38;5.90;21.40
29093;DHT22;16167;48.768;14.984;2023-01-01T07:11:06;5.90;20.70
29093;DHT22;16167;48.768;14.984;2023-01-01T07:13:34;5.80;23.30
29093;DHT22;16167;48.768;14.984;2023-01-01T07:16:02;5.80;23.30
29093;DHT22;16167;48.768;14.984;2023-01-01T07:18:38;5.70;24.20
29093;DHT22;16167;48.768;14.984;2023-01-01T07:21:24;5.80;24.00
29093;DHT22;16167;48.768;14.984;2023-01-01T07:23:56;5.70;25.90
29093;DHT22;16167;48.768;14.984;2023-01-01T07:26:25;5.70;27.20
29093;DHT22;16167;48.768;14.984;2023-01-01T07:28:53;5.70;29.50
29093;DHT22;16167;48.768;14.984;2023-01-01T07:31:30;5.70;26.60
29093;DHT22;16167;48.768;14.984;2023-01-01T07:33:58;5.70;27.50
29093;DHT22;16167;48.768;14.984;2023-01-01T07:36:27;5.70;28.00
29093;DHT22;16167;48.768;14.984;2023-01-01T07:38:55;5.70;28.30
29093;DHT22;16167;48.768;14.984;2023-01-01T07:41:23;5.70;30.00
29093;DHT22;16167;48.768;14.984;2023-01-01T07:43:51;5.70;25.20
29093;DHT22;16167;48.768;14.984;2023-01-01T07:46:19;5.70;27.10
29093;DHT22;16167;48.768;14.984;2023-01-01T07:48:47;5.80;28.40
29093;DHT22;16167;48.768;14.984;2023-01-01T07:51:15;5.70;27.50
29093;DHT22;16167;48.768;14.984;2023-01-01T07:53:45;5.80;27.70
29093;DHT22;16167;48.768;14.984;2023-01-01T07:56:13;5.80;28.90
29093;DHT22;16167;48.768;14.984;2023-01-01T07:58:41;5.80;27.50
29093;DHT22;16167;48.768;14.984;2023-01-01T08:01:10;5.90;25.00
29093;DHT22;16167;48.768;14.984;2023-01-01T08:03:38;5.90;25.80
29093;DHT22;16167;48.768;14.984;2023-01-01T08:06:08;6.00;25.90
29093;DHT22;16167;48.768;14.984;2023-01-01T08:08:36;6.00;25.90
29093;DHT22;16167;48.768;14.984;2023-01-01T08:11:05;6.10;24.10
29093;DHT22;16167;48.768;14.984;2023-01-01T08:13:33;6.20;22.10
29093;DHT22;16167;48.768;14.984;2023-01-01T08:16:02;6.30;22.80
29093;DHT22;16167;48.768;14.984;2023-01-01T08:18:30;6.40;20.10
29093;DHT22;16167;48.768;14.984;2023-01-01T08:20:58;6.50;17.40
29093;DHT22;16167;48.768;14.984;2023-01-01T08:23:26;6.50;13.60
29093;DHT22;16167;48.768;14.984;2023-01-01T08:25:57;6.60;11.70
29093;DHT22;16167;48.768;14.984;2023-01-01T08:28:27;6.60;10.80
29093;DHT22;16167;48.768;14.984;2023-01-01T08:30:56;6.70;10.50
29093;DHT22;16167;48.768;14.984;2023-01-01T08:33:25;6.70;10.40
29093;DHT22;16167;48.768;14.984;2023-01-01T08:35:53;6.80;8.80
29093;DHT22;16167;48.768;14.984;2023-01-01T08:38:21;6.80;11.00
29093;DHT22;16167;48.768;14.984;2023-01-01T08:40:49;6.90;8.20
29093;DHT22;16167;48.768;14.984;2023-01-01T08:43:17;7.00;7.50
29093;DHT22;16167;48.768;14.984;2023-01-01T08:45:47;7.00;5.40
29093;DHT22;16167;48.768;14.984;2023-01-01T08:48:15;7.10;2.80
29093;DHT22;16167;48.768;14.984;2023-01-01T08:50:43;7.20;1.50
29093;DHT22;16167;48.768;14.984;2023-01-01T08:53:11;7.30;1.00
29093;DHT22;16167;48.768;14.984;2023-01-01T08:55:39;7.40;2.40
29093;DHT22;16167;48.768;14.984;2023-01-01T08:58:07;7.40;1.00
29093;DHT22;16167;48.768;14.984;2023-01-01T09:00:35;7.60;1.00
29093;DHT22;16167;48.768;14.984;2023-01-01T09:03:05;7.70;1.00
29093;DHT22;16167;48.768;14.984;2023-01-01T09:05:33;7.90;1.00
29093;DHT22;16167;48.768;14.984;2023-01-01T09:08:01;8.00;1.00
29093;DHT22;16167;48.768;14.984;2023-01-01T09:10:29;8.10;1.00
29093;DHT22;16167;48.768;14.984;2023-01-01T09:12:57;8.20;3.20
29093;DHT22;16167;48.768;14.984;2023-01-01T09:15:25;8.30;1.00
29093;DHT22;16167;48.768;14.984;2023-01-01T09:17:53;8.40;1.00
29093;DHT22;16167;48.768;14.984;2023-01-01T09:20:22;8.50;1.00
29093;DHT22;16167;48.768;14.984;2023-01-01T09:22:51;8.70;1.00
29093;DHT22;16167;48.768;14.984;2023-01-01T09:25:19;8.80;1.00
29093;DHT22;16167;48.768;14.984;2023-01-01T09:27:47;8.90;1.00
29093;DHT22;16167;48.768;14.984;2023-01-01T09:30:15;9.10;1.00
29093;DHT22;16167;48.768;14.984;2023-01-01T09:32:43;9.20;1.00
29093;DHT22;16167;48.768;14.984;2023-01-01T09:35:11;9.40;1.00
29093;DHT22;16167;48.768;14.984;2023-01-01T09:37:40;9.60;1.00
29093;DHT22;16167;48.768;14.984;2023-01-01T09:40:23;9.80;1.00
29093;DHT22;16167;48.768;14.984;2023-01-01T09:42:59;10.00;1.00
29093;DHT22;16167;48.768;14.984;2023-01-01T09:45:30;10.20;1.00
29093;DHT22;16167;48.768;14.984;2023-01-01T09:48:03;10.50;1.00
29093;DHT22;16167;48.768;14.984;2023-01-01T09:50:37;10.70;1.00
29093;DHT22;16167;48.768;14.984;2023-01-01T09:53:12;11.00;1.00
29093;DHT22;16167;48.768;14.984;2023-01-01T09:55:45;11.20;1.00
29093;DHT22;16167;48.768;14.984;2023-01-01T09:58:14;11.40;1.00
29093;DHT22;16167;48.768;14.984;2023-01-01T10:00:44;11.60;1.00
29093;DHT22;16167;48.768;14.984;2023-01-01T10:03:31;11.80;1.00
29093;DHT22;16167;48.768;14.984;2023-01-01T10:06:12;12.00;1.00
29093;DHT22;16167;48.768;14.984;2023-01-01T10:08:52;12.20;1.00
29093;DHT22;16167;48.768;14.984;2023-01-01T10:11:25;12.40;1.00
29093;DHT22;16167;48.768;14.984;2023-01-01T10:13:59;12.70;1.00
29093;DHT22;16167;48.768;14.984;2023-01-01T10:16:32;12.90;1.00
29093;DHT22;16167;48.768;14.984;2023-01-01T10:19:21;13.20;1.00
29093;DHT22;16167;48.768;14.984;2023-01-01T10:21:54;13.40;1.00
29093;DHT22;16167;48.768;14.984;2023-01-01T10:24:35;13.80;1.00
29093;DHT22;16167;48.768;14.984;2023-01-01T10:27:05;14.40;1.00
29093;DHT22;16167;48.768;14.984;2023-01-01T10:29:39;15.20;1.00
29093;DHT22;16167;48.768;14.984;2023-01-01T10:32:17;16.40;1.00
29093;DHT22;16167;48.768;14.984;2023-01-01T10:34:48;18.00;1.00
29093;DHT22;16167;48.768;14.984;2023-01-01T10:37:17;19.70;1.00
29093;DHT22;16167;48.768;14.984;2023-01-01T10:39:47;21.20;1.00
29093;DHT22;16167;48.768;14.984;2023-01-01T10:42:15;22.40;1.00
29093;DHT22;16167;48.768;14.984;2023-01-01T10:44:44;23.20;1.00
29093;DHT22;16167;48.768;14.984;2023-01-01T10:47:30;23.80;1.00
29093;DHT22;16167;48.768;14.984;2023-01-01T10:50:00;24.70;1.00
29093;DHT22;16167;48.768;14.984;2023-01-01T10:52:33;25.50;1.00
29093;DHT22;16167;48.768;14.984;2023-01-01T10:55:03;26.60;1.00
29093;DHT22;16167;48.768;14.984;2023-01-01T10:57:34;27.80;1.00
29093;DHT22;16167;48.768;14.984;2023-01-01T11:00:19;28.80;1.00
29093;DHT22;16167;48.768;14.984;2023-01-01T11:02:56;29.70;1.00
29093;DHT22;16167;48.768;14.984;2023-01-01T11:05:32;29.70;1.00
29093;DHT22;16167;48.768;14.984;2023-01-01T11:08:00;30.00;1.00
29093;DHT22;16167;48.768;14.984;2023-01-01T11:10:30;30.50;1.00
29093;DHT22;16167;48.768;14.984;2023-01-01T11:12:58;30.90;1.00
29093;DHT22;16167;48.768;14.984;2023-01-01T11:15:36;31.10;1.00
29093;DHT22;16167;48.768;14.984;2023-01-01T11:18:06;31.60;1.00
29093;DHT22;16167;48.768;14.984;2023-01-01T11:20:39;32.20;1.00
29093;DHT22;16167;48.768;14.984;2023-01-01T11:23:27;32.50;1.00
29093;DHT22;16167;48.768;14.984;2023-01-01T11:26:21;32.60;1.00
29093;DHT22;16167;48.768;14.984;2023-01-01T11:29:01;32.70;1.00
29093;DHT22;16167;48.768;14.984;2023-01-01T11:31:33;33.00;1.00
29093;DHT22;16167;48.768;14.984;2023-01-01T11:34:19;33.30;1.00
29093;DHT22;16167;48.768;14.984;2023-01-01T11:36:50;33.40;1.00
29093;DHT22;16167;48.768;14.984;2023-01-01T11:39:22;33.80;1.00
29093;DHT22;16167;48.768;14.984;2023-01-01T11:41:55;33.80;1.00
29093;DHT22;16167;48.768;14.984;2023-01-01T11:44:28;33.60;1.00
29093;DHT22;16167;48.768;14.984;2023-01-01T11:46:59;33.60;1.00
29093;DHT22;16167;48.768;14.984;2023-01-01T11:49:29;33.90;1.00
29093;DHT22;16167;48.768;14.984;2023-01-01T11:51:58;33.80;1.00
29093;DHT22;16167;48.768;14.984;2023-01-01T11:54:29;33.50;1.00
29093;DHT22;16167;48.768;14.984;2023-01-01T11:57:05;33.20;1.00
29093;DHT22;16167;48.768;14.984;2023-01-01T11:59:40;32.90;1.00
29093;DHT22;16167;48.768;14.984;2023-01-01T12:02:13;32.70;1.00
29093;DHT22;16167;48.768;14.984;2023-01-01T12:04:46;32.50;1.00
29093;DHT22;16167;48.768;14.984;2023-01-01T12:07:17;32.30;1.00
29093;DHT22;16167;48.768;14.984;2023-01-01T12:09:52;32.20;1.00
29093;DHT22;16167;48.768;14.984;2023-01-01T12:12:28;32.50;1.00
29093;DHT22;16167;48.768;14.984;2023-01-01T12:15:00;32.50;1.00
29093;DHT22;16167;48.768;14.984;2023-01-01T12:17:33;32.60;1.00
29093;DHT22;16167;48.768;14.984;2023-01-01T12:20:10;32.40;1.00
29093;DHT22;16167;48.768;14.984;2023-01-01T12:22:39;31.90;1.00
29093;DHT22;16167;48.768;14.984;2023-01-01T12:25:11;31.70;1.00
29093;DHT22;16167;48.768;14.984;2023-01-01T12:27:52;31.30;1.00
29093;DHT22;16167;48.768;14.984;2023-01-01T12:30:29;30.70;1.00
29093;DHT22;16167;48.768;14.984;2023-01-01T12:33:09;30.00;1.00
29093;DHT22;16167;48.768;14.984;2023-01-01T12:35:51;29.10;1.00
29093;DHT22;16167;48.768;14.984;2023-01-01T12:38:34;28.40;1.00
29093;DHT22;16167;48.768;14.984;2023-01-01T12:41:11;27.80;1.00
29093;DHT22;16167;48.768;14.984;2023-01-01T12:43:47;27.30;1.00
29093;DHT22;16167;48.768;14.984;2023-01-01T12:46:30;26.50;1.00
29093;DHT22;16167;48.768;14.984;2023-01-01T12:49:41;26.10;1.00
29093;DHT22;16167;48.768;14.984;2023-01-01T12:52:19;25.80;1.00
29093;DHT22;16167;48.768;14.984;2023-01-01T12:55:10;25.30;1.00
29093;DHT22;16167;48.768;14.984;2023-01-01T12:57:50;25.10;1.00
29093;DHT22;16167;48.768;14.984;2023-01-01T13:00:21;25.00;1.00
29093;DHT22;16167;48.768;14.984;2023-01-01T13:02:52;24.80;1.00
29093;DHT22;16167;48.768;14.984;2023-01-01T13:05:26;24.80;1.00
29093;DHT22;16167;48.768;14.984;2023-01-01T13:07:58;24.90;1.00
29093;DHT22;16167;48.768;14.984;2023-01-01T13:10:28;24.90;1.00
29093;DHT22;16167;48.768;14.984;2023-01-01T13:13:00;24.60;1.00
29093;DHT22;16167;48.768;14.984;2023-01-01T13:15:48;24.40;1.00
29093;DHT22;16167;48.768;14.984;2023-01-01T13:18:27;24.40;1.00
29093;DHT22;16167;48.768;14.984;2023-01-01T13:20:57;24.40;1.00
29093;DHT22;16167;48.768;14.984;2023-01-01T13:23:49;24.30;1.00
29093;DHT22;16167;48.768;14.984;2023-01-01T13:26:34;24.30;1.00
29093;DHT22;16167;48.768;14.984;2023-01-01T13:29:28;24.40;1.00
29093;DHT22;16167;48.768;14.984;2023-01-01T13:32:10;24.80;1.00
29093;DHT22;16167;48.768;14.984;2023-01-01T13:35:13;25.20;1.00
29093;DHT22;16167;48.768;14.984;2023-01-01T13:37:43;25.40;1.00
29093;DHT22;16167;48.768;14.984;2023-01-01T13:40:46;25.60;1.00
29093;DHT22;16167;48.768;14.984;2023-01-01T13:43:26;25.90;1.00
29093;DHT22;16167;48.768;14.984;2023-01-01T13:45:56;26.10;1.00
29093;DHT22;16167;48.768;14.984;2023-01-01T13:48:49;26.20;1.00
29093;DHT22;16167;48.768;14.984;2023-01-01T13:52:04;25.80;1.00
29093;DHT22;16167;48.768;14.984;2023-01-01T13:58:04;24.40;1.00
29093;DHT22;16167;48.768;14.984;2023-01-01T14:00:40;23.80;1.00
29093;DHT22;16167;48.768;14.984;2023-01-01T14:03:17;23.20;1.00
29093;DHT22;16167;48.768;14.984;2023-01-01T14:05:49;22.70;1.00
29093;DHT22;16167;48.768;14.984;2023-01-01T14:08:29;22.30;1.00
29093;DHT22;16167;48.768;14.984;2023-01-01T14:10:57;22.10;1.00
29093;DHT22;16167;48.768;14.984;2023-01-01T14:13:28;21.90;1.00
29093;DHT22;16167;48.768;14.984;2023-01-01T14:16:00;21.50;1.00
29093;DHT22;16167;48.768;14.984;2023-01-01T14:18:32;21.30;1.00
29093;DHT22;16167;48.768;14.984;2023-01-01T14:21:07;21.10;1.00
29093;DHT22;16167;48.768;14.984;2023-01-01T14:23:39;20.90;1.00
29093;DHT22;16167;48.768;14.984;2023-01-01T14:26:09;20.80;1.00
29093;DHT22;16167;48.768;14.984;2023-01-01T14:28:39;20.70;1.00
29093;DHT22;16167;48.768;14.984;2023-01-01T14:31:10;20.40;1.00
29093;DHT22;16167;48.768;14.984;2023-01-01T14:33:39;20.00;1.00
29093;DHT22;16167;48.768;14.984;2023-01-01T14:36:16;19.50;1.00
29093;DHT22;16167;48.768;14.984;2023-01-01T14:38:47;19.00;1.00
29093;DHT22;16167;48.768;14.984;2023-01-01T14:41:21;18.50;1.00
29093;DHT22;16167;48.768;14.984;2023-01-01T14:43:54;18.00;1.00
29093;DHT22;16167;48.768;14.984;2023-01-01T14:46:24;17.70;1.00
29093;DHT22;16167;48.768;14.984;2023-01-01T14:48:56;17.40;1.00
29093;DHT22;16167;48.768;14.984;2023-01-01T14:51:28;17.10;1.00
29093;DHT22;16167;48.768;14.984;2023-01-01T14:53:59;16.90;1.00
29093;DHT22;16167;48.768;14.984;2023-01-01T14:56:30;16.70;1.00
29093;DHT22;16167;48.768;14.984;2023-01-01T14:59:04;16.50;1.00
29093;DHT22;16167;48.768;14.984;2023-01-01T15:01:33;16.20;1.00
29093;DHT22;16167;48.768;14.984;2023-01-01T15:04:03;15.90;1.00
29093;DHT22;16167;48.768;14.984;2023-01-01T15:06:39;15.70;1.00
29093;DHT22;16167;48.768;14.984;2023-01-01T15:09:14;15.50;1.00
29093;DHT22;16167;48.768;14.984;2023-01-01T15:11:42;15.20;1.00
29093;DHT22;16167;48.768;14.984;2023-01-01T15:14:29;15.00;1.00
29093;DHT22;16167;48.768;14.984;2023-01-01T15:17:01;14.80;1.00
29093;DHT22;16167;48.768;14.984;2023-01-01T15:19:30;14.60;1.00
29093;DHT22;16167;48.768;14.984;2023-01-01T15:22:00;14.40;1.00
29093;DHT22;16167;48.768;14.984;2023-01-01T15:24:36;14.10;1.00
29093;DHT22;16167;48.768;14.984;2023-01-01T15:27:06;13.90;1.00
29093;DHT22;16167;48.768;14.984;2023-01-01T15:29:36;13.70;1.00
29093;DHT22;16167;48.768;14.984;2023-01-01T15:32:06;13.50;1.00
29093;DHT22;16167;48.768;14.984;2023-01-01T15:34:40;13.40;1.00
29093;DHT22;16167;48.768;14.984;2023-01-01T15:37:13;13.20;1.00
29093;DHT22;16167;48.768;14.984;2023-01-01T15:39:46;13.00;1.00
29093;DHT22;16167;48.768;14.984;2023-01-01T15:42:26;12.90;1.00
29093;DHT22;16167;48.768;14.984;2023-01-01T15:47:50;12.60;1.00
29093;DHT22;16167;48.768;14.984;2023-01-01T15:50:21;12.40;1.00
29093;DHT22;16167;48.768;14.984;2023-01-01T15:52:54;12.30;1.00
29093;DHT22;16167;48.768;14.984;2023-01-01T15:55:25;12.20;1.00
29093;DHT22;16167;48.768;14.984;2023-01-01T15:57:54;12.00;1.00
29093;DHT22;16167;48.768;14.984;2023-01-01T16:00:24;11.90;1.00
29093;DHT22;16167;48.768;14.984;2023-01-01T16:02:55;11.70;1.00
29093;DHT22;16167;48.768;14.984;2023-01-01T16:05:26;11.60;1.00
29093;DHT22;16167;48.768;14.984;2023-01-01T16:08:01;11.40;1.00
29093;DHT22;16167;48.768;14.984;2023-01-01T16:10:30;11.30;1.00
29093;DHT22;16167;48.768;14.984;2023-01-01T16:12:58;11.20;1.00
29093;DHT22;16167;48.768;14.984;2023-01-01T16:15:26;11.20;1.00
29093;DHT22;16167;48.768;14.984;2023-01-01T16:17:54;11.20;1.00